Time;durP1;ratioP1;P1;durP2;ratioP2;P2;SDS_P1;SDS_P2;PMS_P1;PMS_P2;Temp;Humidity;BMP_temperature;BMP_pressure;BME280_temperature;BME280_humidity;BME280_pressure;Samples;Min_cycle;Max_cycle;Signal;HPM_P1;HPM_P2
2021/11/13 00:00:39;;;;;;;80.47;40.38;;;;;;;5.61;87.13;101109.48;1766030;78;20125;-79
2021/11/13 00:03:07;;;;;;;82.17;40.25;;;;;;;5.58;87.14;101109.44;1771471;81;20923;-79
2021/11/13 00:05:34;;;;;;;92.02;43.15;;;;;;;5.56;87.14;101109.42;1769269;80;20890;-79
2021/11/13 00:08:01;;;;;;;85.32;41.15;;;;;;;5.57;87.16;101114.13;1766335;79;21398;-79
2021/11/13 00:10:27;;;;;;;84.17;40.83;;;;;;;5.55;87.17;101106.42;1765739;80;20926;-79
2021/11/13 00:12:57;;;;;;;86.42;41.63;;;;;;;5.53;87.15;101111.95;1750166;79;21393;-79
2021/11/13 00:15:26;;;;;;;92.90;42.58;;;;;;;5.50;87.11;101111.91;1767907;81;20895;-79
2021/11/13 00:17:53;;;;;;;90.47;43.23;;;;;;;5.47;87.09;101112.30;1721166;81;21459;-79
2021/11/13 00:20:21;;;;;;;99.32;46.25;;;;;;;5.42;87.07;101110.09;1751871;81;20898;-79
2021/11/13 00:22:49;;;;;;;96.67;44.45;;;;;;;5.37;87.07;101106.60;1760173;79;21343;-79
2021/11/13 00:25:16;;;;;;;98.72;44.27;;;;;;;5.32;87.05;101113.81;1761468;80;20895;-79
2021/11/13 00:27:45;;;;;;;;;;;;;;;5.28;87.03;101103.50;1750638;80;20934;-79
2021/11/13 00:30:14;;;;;;;101.45;43.98;;;;;;;5.26;87.05;101102.61;1752444;79;20427;-79
2021/11/13 00:32:42;;;;;;;94.05;43.90;;;;;;;5.23;87.08;101103.43;1744827;81;21034;-79
2021/11/13 00:35:09;;;;;;;98.03;42.35;;;;;;;5.21;87.07;101100.41;1765765;79;20882;-79
2021/11/13 00:37:36;;;;;;;99.00;41.73;;;;;;;5.19;87.11;101096.99;1758127;81;21013;-79
2021/11/13 00:40:04;;;;;;;100.15;45.15;;;;;;;5.16;87.10;101093.97;1764029;79;21620;-79
2021/11/13 00:42:30;;;;;;;102.40;45.88;;;;;;;5.16;87.09;101093.11;1757742;81;21088;-79
2021/11/13 00:44:56;;;;;;;105.40;45.03;;;;;;;5.15;87.10;101101.64;1769930;80;21037;-79
2021/11/13 00:47:22;;;;;;;100.45;44.35;;;;;;;5.13;87.12;101095.20;1761165;79;21476;-79
2021/11/13 00:49:50;;;;;;;99.32;45.38;;;;;;;5.13;87.13;101091.36;1739718;80;21012;-79
2021/11/13 00:52:16;;;;;;;104.38;46.23;;;;;;;5.13;87.12;101084.95;1746324;81;21112;-78
2021/11/13 00:54:43;;;;;;;109.57;44.23;;;;;;;5.14;87.13;101087.09;1739197;80;20873;-78
2021/11/13 00:57:09;;;;;;;106.55;44.95;;;;;;;5.13;87.13;101081.11;1767827;81;21037;-78
2021/11/13 00:59:37;;;;;;;111.00;49.42;;;;;;;5.13;87.14;101073.41;1748658;80;21105;-79
2021/11/13 01:02:05;;;;;;;106.32;47.15;;;;;;;5.14;87.11;101071.30;1756407;81;21061;-79
2021/11/13 01:04:31;;;;;;;107.65;46.95;;;;;;;5.13;87.12;101072.13;1765931;79;20925;-79
2021/11/13 01:06:57;;;;;;;114.62;46.58;;;;;;;5.13;87.13;101068.30;1744542;81;20939;-79
2021/11/13 01:09:29;;;;;;;110.40;47.08;;;;;;;5.14;87.13;101070.02;1720109;82;124037;-79
2021/11/13 01:11:57;;;;;;;104.20;45.92;;;;;;;5.13;87.10;101064.45;1757513;81;20946;-79
2021/11/13 01:14:24;;;;;;;108.72;47.40;;;;;;;5.12;87.12;101056.31;1727152;81;20914;-79
2021/11/13 01:16:50;;;;;;;;;;;;;;;5.13;87.13;101056.75;1766533;81;21441;-79
2021/11/13 01:19:16;;;;;;;100.58;41.70;;;;;;;5.14;87.13;101050.78;1747281;79;20138;-79
2021/11/13 01:21:50;;;;;;;109.37;44.25;;;;;;;5.15;87.15;101049.09;1756017;81;20941;-79
2021/11/13 01:24:16;;;;;;;113.77;48.52;;;;;;;5.15;87.15;101042.67;1752701;81;20937;-79
2021/11/13 01:26:42;;;;;;;123.90;49.42;;;;;;;5.16;87.13;101045.26;1744268;81;20878;-79
2021/11/13 01:29:08;;;;;;;127.22;49.15;;;;;;;5.17;87.14;101049.55;1754874;79;20898;-79
2021/11/13 01:31:37;;;;;;;113.97;47.93;;;;;;;5.17;87.15;101046.98;1769222;81;20965;-79
2021/11/13 01:34:03;;;;;;;122.70;51.23;;;;;;;5.18;87.16;101054.25;1738856;80;20941;-79
2021/11/13 01:36:29;;;;;;;115.20;50.07;;;;;;;5.19;87.14;101060.68;1769554;80;20925;-79
2021/11/13 01:38:56;;;;;;;116.93;50.17;;;;;;;5.20;87.11;101050.01;1759894;79;20887;-79
2021/11/13 01:41:23;;;;;;;127.30;50.25;;;;;;;5.19;87.12;101049.14;1739451;81;20914;-79
2021/11/13 01:43:50;;;;;;;125.35;51.55;;;;;;;5.19;87.12;101049.14;1760830;79;21422;-79
2021/11/13 01:46:17;;;;;;;119.22;50.00;;;;;;;5.20;87.12;101026.94;1751551;81;20906;-79
2021/11/13 01:48:43;;;;;;;123.28;51.02;;;;;;;5.20;87.10;101017.96;1720303;80;20942;-79
2021/11/13 01:51:23;;;;;;;127.47;51.55;;;;;;;5.19;87.13;100999.16;1716617;80;20912;-79
2021/11/13 01:53:53;;;;;;;126.72;51.58;;;;;;;5.20;87.12;101007.71;1765661;80;20908;-80
2021/11/13 01:56:21;;;;;;;125.87;51.40;;;;;;;5.20;87.16;101016.23;1751026;79;20910;-79
2021/11/13 01:58:54;;;;;;;128.40;52.08;;;;;;;5.23;87.17;101030.78;1737368;81;20859;-79
2021/11/13 02:01:21;;;;;;;122.33;49.85;;;;;;;5.24;87.14;101046.61;1757955;81;20962;-79
2021/11/13 02:03:49;;;;;;;124.78;53.08;;;;;;;5.27;87.16;101049.21;1728894;82;20935;-79
2021/11/13 02:06:17;;;;;;;124.07;50.73;;;;;;;5.30;87.17;101039.86;1757478;79;20953;-79
2021/11/13 02:08:43;;;;;;;119.20;50.58;;;;;;;5.30;87.13;101032.59;1753013;81;20908;-79
2021/11/13 02:11:13;;;;;;;125.20;52.85;;;;;;;5.30;87.10;101037.30;1763280;80;21395;-79
2021/11/13 02:13:40;;;;;;;130.72;51.90;;;;;;;5.29;87.10;101016.34;1744346;79;20870;-79
2021/11/13 02:16:08;;;;;;;;;;;;;;;5.30;87.09;101010.79;1758093;81;20922;-79
2021/11/13 02:18:35;;;;;;;120.13;49.25;;;;;;;5.28;87.07;101000.52;1758409;81;20088;-80
2021/11/13 02:21:01;;;;;;;131.10;51.70;;;;;;;5.27;87.08;101003.06;1757837;79;20914;-80
2021/11/13 02:23:27;;;;;;;128.17;52.03;;;;;;;5.27;87.12;100991.52;1744288;79;20894;-80
2021/11/13 02:25:54;;;;;;;134.10;53.60;;;;;;;5.27;87.12;100999.22;1769751;81;21578;-80
2021/11/13 02:28:24;;;;;;;123.90;51.20;;;;;;;5.30;87.18;101019.77;1745600;79;21169;-80
2021/11/13 02:30:53;;;;;;;128.72;52.83;;;;;;;5.32;87.17;101009.11;1769018;81;20863;-80
2021/11/13 02:33:20;;;;;;;127.40;53.60;;;;;;;5.31;87.10;101004.82;1753928;79;20929;-79
2021/11/13 02:35:49;;;;;;;126.67;51.95;;;;;;;5.32;87.12;100995.87;1762337;81;20895;-79
2021/11/13 02:38:20;;;;;;;118.90;49.90;;;;;;;5.32;87.15;101007.41;1766741;81;20898;-79
2021/11/13 02:40:57;;;;;;;125.10;50.90;;;;;;;5.36;87.17;101011.28;1767870;80;20891;-79
2021/11/13 02:43:28;;;;;;;;;;;;;;;5.36;87.15;101018.98;1769512;79;20890;-79
2021/11/13 02:45:58;;;;;;;122.25;49.35;;;;;;;5.36;87.13;101022.41;1748362;81;20121;-79
2021/11/13 02:48:27;;;;;;;124.35;51.60;;;;;;;5.37;87.16;101016.43;1750634;81;20915;-79
2021/11/13 02:50:55;;;;;;;131.52;53.73;;;;;;;5.40;87.15;101010.48;1746567;81;20910;-79
2021/11/13 02:53:24;;;;;;;;;;;;;;;5.39;87.11;101007.05;1732835;81;21771;-79
2021/11/13 02:55:53;;;;;;;135.18;51.05;;;;;;;5.39;87.12;101008.34;1768599;80;20125;-79
2021/11/13 02:58:24;;;;;;;134.45;53.13;;;;;;;5.40;87.13;101014.33;1763146;79;21413;-79
2021/11/13 03:00:58;;;;;;;132.72;51.85;;;;;;;5.41;87.14;101014.77;1748989;81;21385;-79
2021/11/13 03:03:25;;;;;;;126.18;52.48;;;;;;;5.43;87.17;101014.36;1741360;80;20861;-79
2021/11/13 03:05:55;;;;;;;121.97;50.50;;;;;;;5.44;87.14;101012.23;1760130;80;28112;-79
2021/11/13 03:08:33;;;;;;;133.85;51.08;;;;;;;5.45;87.13;101014.81;1725514;81;21386;-79
2021/11/13 03:11:04;;;;;;;126.62;51.02;;;;;;;5.45;87.11;101015.23;1706932;83;21388;-79
2021/11/13 03:13:32;;;;;;;129.78;52.78;;;;;;;5.47;87.11;101010.98;1717647;83;20924;-79
2021/11/13 03:16:00;;;;;;;135.70;53.10;;;;;;;5.46;87.13;101006.70;1698551;82;20905;-79
2021/11/13 03:18:31;;;;;;;138.60;53.52;;;;;;;5.47;87.10;101005.86;1720711;80;20899;-79
2021/11/13 03:20:57;;;;;;;129.70;52.03;;;;;;;5.47;87.10;101007.14;1722022;82;26306;-79
2021/11/13 03:23:25;;;;;;;143.30;55.17;;;;;;;5.46;87.13;101005.00;1725273;82;20918;-79
2021/11/13 03:26:05;;;;;;;138.10;52.93;;;;;;;5.47;87.10;101007.14;1695410;82;21418;-79
2021/11/13 03:28:39;;;;;;;129.15;51.50;;;;;;;5.48;87.09;101009.72;1700047;83;20968;-79
2021/11/13 03:31:07;;;;;;;141.35;54.65;;;;;;;5.47;87.11;101007.14;1713319;82;20886;-79
2021/11/13 03:33:37;;;;;;;136.82;52.83;;;;;;;5.46;87.11;101005.00;1709357;83;20872;-79
2021/11/13 03:36:05;;;;;;;129.80;51.58;;;;;;;5.47;87.09;101008.00;1713299;82;20948;-79
2021/11/13 03:38:34;;;;;;;133.67;51.92;;;;;;;5.48;87.13;101008.86;1709804;83;20944;-79
2021/11/13 03:41:00;;;;;;;129.65;52.83;;;;;;;5.49;87.13;101010.58;1717020;83;20940;-79
2021/11/13 03:43:27;;;;;;;136.32;53.52;;;;;;;5.49;87.13;101007.59;1729607;80;20930;-79
2021/11/13 03:45:53;;;;;;;139.18;52.03;;;;;;;5.49;87.08;101016.57;1763299;81;20906;-79
2021/11/13 03:48:19;;;;;;;131.60;54.18;;;;;;;5.50;87.12;101014.88;1751709;79;20905;-79
2021/11/13 03:50:47;;;;;;;142.28;52.70;;;;;;;5.49;87.11;101020.84;1759794;80;21413;-79
2021/11/13 03:53:14;;;;;;;143.10;54.23;;;;;;;5.51;87.12;101014.02;1766573;80;20862;-79
2021/11/13 03:55:40;;;;;;;133.37;50.73;;;;;;;5.52;87.12;101010.62;1768660;79;21260;-79
2021/11/13 03:58:06;;;;;;;132.95;52.43;;;;;;;5.53;87.12;101004.64;1759311;81;20895;-79
2021/11/13 04:00:32;;;;;;;132.77;50.77;;;;;;;5.53;87.12;101012.34;1746014;79;21653;-79
2021/11/13 04:02:59;;;;;;;131.03;51.55;;;;;;;5.52;87.10;101006.34;1706285;82;20914;-79
2021/11/13 04:05:29;;;;;;;129.95;51.98;;;;;;;5.51;87.08;101005.91;1726178;80;20945;-79
2021/11/13 04:07:56;;;;;;;130.18;51.90;;;;;;;5.51;87.10;101005.05;1728035;82;28699;-79
2021/11/13 04:10:22;;;;;;;131.80;50.65;;;;;;;5.50;87.11;100994.34;1694033;82;20962;-79
2021/11/13 04:12:49;;;;;;;133.20;52.53;;;;;;;5.51;87.12;100994.79;1708961;82;21686;-79
2021/11/13 04:15:16;;;;;;;;;;;;;;;5.49;87.06;100988.36;1721195;82;22351;-79
2021/11/13 04:17:43;;;;;;;128.75;48.83;;;;;;;5.47;87.09;100984.06;1739645;80;20730;-79
2021/11/13 04:20:11;;;;;;;136.12;52.40;;;;;;;5.46;87.10;100986.19;1731447;82;21724;-79
2021/11/13 04:22:39;;;;;;;142.28;54.50;;;;;;;5.44;87.06;100980.18;1740653;80;21339;-79
2021/11/13 04:25:09;;;;;;;140.37;54.30;;;;;;;5.42;87.10;100989.56;1728990;82;21444;-79
2021/11/13 04:27:37;;;;;;;146.87;54.30;;;;;;;5.40;87.13;100988.26;1690884;82;21473;-79
2021/11/13 04:30:06;;;;;;;147.90;56.13;;;;;;;5.41;87.12;100990.41;1721164;80;20909;-79
2021/11/13 04:32:34;;;;;;;148.40;53.85;;;;;;;5.38;87.08;100985.23;1708171;83;21558;-79
2021/11/13 04:35:15;;;;;;;151.95;55.12;;;;;;;5.38;87.13;100986.52;1706652;83;21518;-79
2021/11/13 04:37:31;;;;;;;143.97;54.77;;;;;;;5.36;87.12;100986.50;1705157;81;21293;-79
2021/11/13 04:39:58;;;;;;;140.20;51.65;;;;;;;5.35;87.13;100984.78;1722380;82;20942;-79
2021/11/13 04:42:25;;;;;;;147.53;53.13;;;;;;;5.35;87.16;100989.91;1711049;81;21414;-79
2021/11/13 04:44:51;;;;;;;147.87;54.05;;;;;;;5.34;87.15;100992.03;1707410;83;20883;-79
2021/11/13 04:47:18;;;;;;;159.75;57.43;;;;;;;5.35;87.14;100989.91;1716246;81;21521;-79
2021/11/13 04:49:44;;;;;;;146.60;53.70;;;;;;;5.32;87.16;100986.89;1703741;83;20930;-79
2021/11/13 04:52:11;;;;;;;144.97;52.33;;;;;;;5.32;87.17;100992.02;1706525;83;21771;-79
2021/11/13 04:54:37;;;;;;;150.57;53.68;;;;;;;5.30;87.11;100993.70;1721326;80;21775;-79
2021/11/13 04:57:05;;;;;;;142.57;51.00;;;;;;;5.30;87.13;100996.27;1723109;80;20893;-79
2021/11/13 04:59:32;;;;;;;161.97;57.60;;;;;;;5.29;87.17;100988.14;1717476;81;20953;-79
2021/11/13 05:01:58;;;;;;;151.37;53.98;;;;;;;5.29;87.14;100994.55;1697001;81;21333;-79
2021/11/13 05:04:24;;;;;;;151.10;51.88;;;;;;;5.27;87.14;100988.96;1722743;80;21747;-79
2021/11/13 05:06:50;;;;;;;153.12;57.00;;;;;;;5.26;87.17;100988.10;1743576;80;21796;-79
2021/11/13 05:09:16;;;;;;;154.53;52.23;;;;;;;5.26;87.15;100992.37;1771962;80;20868;-79
2021/11/13 05:11:42;;;;;;;148.20;54.03;;;;;;;5.25;87.18;100987.66;1734838;80;20921;-79
2021/11/13 05:14:08;;;;;;;146.10;51.90;;;;;;;5.26;87.21;100995.80;1692213;84;20919;-79
2021/11/13 05:16:34;;;;;;;154.23;51.15;;;;;;;5.26;87.22;100993.23;1697681;82;20899;-79
2021/11/13 05:19:00;;;;;;;147.78;54.33;;;;;;;5.25;87.18;100991.51;1742518;80;22081;-79
2021/11/13 05:21:26;;;;;;;151.70;53.93;;;;;;;5.24;87.15;100985.94;1763825;80;20877;-79
2021/11/13 05:23:54;;;;;;;168.80;54.85;;;;;;;5.22;87.11;100988.05;1731275;80;21872;-79
2021/11/13 05:26:20;;;;;;;153.75;54.42;;;;;;;5.21;87.15;100990.17;1740713;80;21348;-79
2021/11/13 05:28:47;;;;;;;152.93;53.30;;;;;;;5.21;87.17;100988.89;1727300;80;21662;-79
2021/11/13 05:31:13;;;;;;;147.20;51.83;;;;;;;5.20;87.15;100988.03;1765554;80;25583;-79
2021/11/13 05:33:40;;;;;;;168.37;53.60;;;;;;;5.19;87.20;100976.09;1730281;80;21462;-79
2021/11/13 05:36:06;;;;;;;159.85;55.75;;;;;;;5.19;87.18;100981.21;1703215;84;20918;-79
2021/11/13 05:38:33;;;;;;;;;;;;;;;5.19;87.19;100983.77;1693438;82;20967;-79
2021/11/13 05:40:59;;;;;;;142.87;45.67;;;;;;;5.18;87.20;100983.34;1618022;84;20433;-79
2021/11/13 05:43:25;;;;;;;151.23;51.87;;;;;;;5.19;87.23;100981.63;1622391;85;20871;-79
2021/11/13 05:45:51;;;;;;;157.23;51.30;;;;;;;5.19;87.21;100985.06;1619890;85;20983;-79
2021/11/13 05:48:17;;;;;;;152.40;52.88;;;;;;;5.19;87.20;100982.49;1629633;86;21890;-79
2021/11/13 05:50:45;;;;;;;166.85;54.10;;;;;;;5.18;87.19;100989.75;1621388;86;20911;-79
2021/11/13 05:53:12;;;;;;;147.22;50.90;;;;;;;5.20;87.22;100987.20;1629258;86;21411;-80
2021/11/13 05:55:39;;;;;;;142.00;48.50;;;;;;;5.21;87.24;100987.19;1629994;86;20950;-80
2021/11/13 05:58:11;;;;;;;164.85;55.45;;;;;;;5.20;87.19;100988.03;1632824;85;20939;-80
2021/11/13 06:00:37;;;;;;;164.45;51.77;;;;;;;5.21;87.18;100990.17;1632479;86;21387;-80
2021/11/13 06:03:03;;;;;;;155.72;53.08;;;;;;;5.21;87.17;100988.47;1630687;86;21416;-80
2021/11/13 06:05:30;;;;;;;156.07;53.70;;;;;;;5.20;87.22;100990.59;1598963;89;21269;-80
2021/11/13 06:07:56;;;;;;;145.25;51.13;;;;;;;5.23;87.22;100992.33;1631150;87;21390;-80
2021/11/13 06:10:22;;;;;;;158.45;52.55;;;;;;;5.24;87.23;100983.80;1639346;87;21421;-79
2021/11/13 06:12:49;;;;;;;154.40;51.15;;;;;;;5.25;87.24;100985.52;1642368;87;20980;-79
2021/11/13 06:15:16;;;;;;;169.00;55.25;;;;;;;5.26;87.21;100979.13;1604788;88;21470;-79
2021/11/13 06:17:42;;;;;;;159.10;54.25;;;;;;;5.26;87.19;100981.69;1594224;89;20939;-79
2021/11/13 06:20:10;;;;;;;156.87;53.63;;;;;;;5.27;87.19;100988.96;1592800;89;21025;-79
2021/11/13 06:22:37;;;;;;;158.20;54.63;;;;;;;5.28;87.22;100993.25;1630224;86;20971;-80
2021/11/13 06:25:04;;;;;;;152.95;51.25;;;;;;;5.29;87.20;100983.01;1593378;88;20951;-80
2021/11/13 06:27:30;;;;;;;152.32;51.88;;;;;;;5.29;87.19;100986.86;1640441;86;20981;-80
2021/11/13 06:29:56;;;;;;;170.60;54.47;;;;;;;5.29;87.17;100991.98;1605689;89;22120;-80
2021/11/13 06:32:22;;;;;;;149.18;51.10;;;;;;;5.30;87.19;100983.45;1638042;87;20925;-80
2021/11/13 06:34:49;;;;;;;159.00;51.73;;;;;;;5.29;87.17;100975.31;1641944;87;20907;-80
2021/11/13 06:37:15;;;;;;;157.57;53.27;;;;;;;5.29;87.17;100977.02;1597271;89;20914;-80
2021/11/13 06:39:41;;;;;;;166.35;54.60;;;;;;;5.30;87.22;100977.45;1640679;87;21438;-80
2021/11/13 06:42:07;;;;;;;163.20;54.53;;;;;;;5.29;87.18;100968.91;1639181;87;20968;-80
2021/11/13 06:44:33;;;;;;;155.87;54.13;;;;;;;5.29;87.18;100971.47;1638196;87;20933;-80
2021/11/13 06:46:59;;;;;;;165.47;54.98;;;;;;;5.30;87.20;100964.22;1600755;89;21007;-80
2021/11/13 06:49:25;;;;;;;159.03;54.73;;;;;;;5.31;87.19;100965.94;1605628;89;20979;-80
2021/11/13 06:51:52;;;;;;;160.32;53.60;;;;;;;5.30;87.15;100966.78;1606986;87;20962;-80
2021/11/13 06:54:18;;;;;;;164.35;54.83;;;;;;;5.30;87.19;100974.47;1613488;87;20931;-80
2021/11/13 06:56:44;;;;;;;159.97;53.65;;;;;;;5.31;87.22;100976.20;1643587;85;20913;-80
2021/11/13 06:59:10;;;;;;;145.37;51.77;;;;;;;5.31;87.19;100978.76;1638334;87;20961;-80
2021/11/13 07:01:36;;;;;;;151.27;52.25;;;;;;;5.33;87.21;100977.08;1601810;87;21018;-80
2021/11/13 07:04:02;;;;;;;167.67;55.33;;;;;;;5.36;87.24;100972.82;1645544;87;20904;-80
2021/11/13 07:06:28;;;;;;;150.15;52.70;;;;;;;5.36;87.21;100976.25;1636842;87;20949;-80
2021/11/13 07:08:54;;;;;;;151.82;53.87;;;;;;;5.37;87.20;100983.52;1640903;85;20946;-80
2021/11/13 07:11:20;;;;;;;160.67;53.60;;;;;;;5.38;87.23;100976.27;1643954;85;21102;-80
2021/11/13 07:13:47;;;;;;;152.50;52.48;;;;;;;5.39;87.22;100980.13;1642347;86;21056;-80
2021/11/13 07:16:31;;;;;;;148.30;52.60;;;;;;;5.40;87.22;100981.84;1594721;87;21093;-80
2021/11/13 07:18:58;;;;;;;156.78;53.28;;;;;;;5.43;87.25;100982.30;1643614;85;21105;-79
2021/11/13 07:21:24;;;;;;;150.77;51.83;;;;;;;5.42;87.20;100976.31;1604081;87;20933;-79
2021/11/13 07:23:50;;;;;;;;;;;;;;;5.43;87.20;100972.05;1635101;85;21154;-79
2021/11/13 07:26:17;;;;;;;141.73;49.75;;;;;;;5.43;87.17;100978.03;1638441;85;20728;-79
2021/11/13 07:28:48;;;;;;;151.47;49.83;;;;;;;5.43;87.18;100978.45;1637022;85;21095;-79
2021/11/13 07:31:16;;;;;;;160.90;51.88;;;;;;;5.43;87.23;100979.31;1641999;85;20968;-79
2021/11/13 07:33:43;;;;;;;155.22;53.68;;;;;;;5.44;87.23;100982.74;1642365;85;21362;-78
2021/11/13 07:36:10;;;;;;;166.10;56.80;;;;;;;5.46;87.21;100979.77;1597181;87;20938;-78
2021/11/13 07:38:39;;;;;;;155.45;52.58;;;;;;;5.46;87.20;100970.38;1605440;87;20974;-78
2021/11/13 07:41:05;;;;;;;167.62;55.70;;;;;;;5.47;87.18;100961.84;1600829;87;20990;-78
2021/11/13 07:43:31;;;;;;;152.12;53.98;;;;;;;5.48;87.18;100961.41;1604715;87;20927;-78
2021/11/13 07:45:58;;;;;;;151.93;53.08;;;;;;;5.48;87.16;100960.99;1631401;85;20896;-78
2021/11/13 07:48:25;;;;;;;155.60;55.45;;;;;;;5.49;87.16;100951.59;1599424;87;21004;-79
2021/11/13 07:50:51;;;;;;;154.18;51.95;;;;;;;5.48;87.16;100957.15;1643537;85;21460;-77
2021/11/13 07:53:17;;;;;;;154.68;52.90;;;;;;;5.49;87.17;100982.37;1604878;87;21038;-77
2021/11/13 07:55:44;;;;;;;153.80;55.33;;;;;;;5.51;87.21;100998.22;1639709;85;20942;-77
2021/11/13 07:58:15;;;;;;;157.95;53.28;;;;;;;5.52;87.23;100983.69;1599805;87;20954;-77
2021/11/13 08:00:42;;;;;;;149.77;53.40;;;;;;;5.54;87.20;101000.81;1634153;85;20975;-77
2021/11/13 08:03:08;;;;;;;161.60;56.08;;;;;;;5.56;87.23;100996.98;1608025;87;21404;-77
2021/11/13 08:05:34;;;;;;;158.87;54.93;;;;;;;5.57;87.21;100985.87;1649748;85;21766;-77
2021/11/13 08:08:00;;;;;;;155.43;54.38;;;;;;;5.60;87.22;100991.90;1645918;85;21430;-77
2021/11/13 08:10:26;;;;;;;165.18;53.45;;;;;;;5.62;87.23;100976.10;1601756;87;20950;-78
2021/11/13 08:12:52;;;;;;;154.68;54.08;;;;;;;5.64;87.20;100975.70;1636335;86;21115;-77
2021/11/13 08:15:19;;;;;;;152.12;52.70;;;;;;;5.68;87.21;100985.98;1630474;86;20948;-77
2021/11/13 08:17:46;;;;;;;151.27;52.98;;;;;;;5.70;87.21;100986.44;1586641;87;21054;-77
2021/11/13 08:20:14;;;;;;;148.95;52.90;;;;;;;5.71;87.17;100995.86;1596922;87;20903;-77
2021/11/13 08:22:41;;;;;;;151.42;53.95;;;;;;;5.74;87.18;100995.86;1621756;86;20917;-77
2021/11/13 08:25:11;;;;;;;153.40;53.60;;;;;;;5.77;87.22;101002.30;1586508;88;21542;-77
2021/11/13 08:27:37;;;;;;;141.80;52.73;;;;;;;5.79;87.18;101007.45;1622803;86;20944;-77
2021/11/13 08:30:07;;;;;;;150.12;56.15;;;;;;;5.79;87.17;101005.74;1583572;87;20994;-79
2021/11/13 08:32:33;;;;;;;146.10;52.30;;;;;;;5.81;87.16;101011.75;1636847;86;21935;-80
2021/11/13 08:35:00;;;;;;;151.72;52.80;;;;;;;5.81;87.14;101017.30;1599047;87;20986;-78
2021/11/13 08:37:27;;;;;;;150.00;52.00;;;;;;;5.80;87.16;101010.03;1633489;86;20936;-83
2021/11/13 08:39:54;;;;;;;146.15;53.35;;;;;;;5.83;87.16;101013.05;1596148;87;20955;-78
2021/11/13 08:42:20;;;;;;;145.68;53.17;;;;;;;5.84;87.21;101009.22;1596161;87;20946;-78
2021/11/13 08:44:47;;;;;;;147.78;54.53;;;;;;;5.87;87.18;101014.38;1598339;87;21086;-75
2021/11/13 08:47:15;;;;;;;156.25;57.43;;;;;;;5.88;87.19;101032.78;1631386;86;21170;-77
2021/11/13 08:49:45;;;;;;;142.45;52.95;;;;;;;5.90;87.17;101022.14;1593271;87;21179;-77
2021/11/13 08:52:15;;;;;;;140.68;52.78;;;;;;;5.92;87.18;101029.85;1613836;86;21005;-76
2021/11/13 08:54:43;;;;;;;145.40;53.87;;;;;;;5.93;87.18;101025.16;1634676;86;20980;-78
2021/11/13 08:57:17;;;;;;;157.35;56.30;;;;;;;5.95;87.17;101024.75;1597308;87;21157;-79
2021/11/13 08:59:43;;;;;;;151.40;54.55;;;;;;;5.97;87.16;101013.66;1595941;87;20918;-78
2021/11/13 09:02:15;;;;;;;148.25;54.05;;;;;;;5.99;87.18;101009.81;1590365;87;21077;-79
2021/11/13 09:04:45;;;;;;;146.47;56.40;;;;;;;6.02;87.17;101001.28;1609815;86;20984;-79
2021/11/13 09:07:12;;;;;;;139.88;55.08;;;;;;;6.03;87.18;100995.30;1606428;86;21530;-79
2021/11/13 09:09:40;;;;;;;137.85;54.25;;;;;;;6.05;87.18;100990.62;1611604;85;20976;-79
2021/11/13 09:12:12;;;;;;;142.13;52.38;;;;;;;6.09;87.22;100985.09;1559596;89;21092;-79
2021/11/13 09:14:38;;;;;;;148.55;55.43;;;;;;;6.11;87.21;100985.53;1607115;86;20976;-76
2021/11/13 09:17:05;;;;;;;145.32;54.70;;;;;;;6.14;87.16;100985.56;1620225;86;21543;-76
2021/11/13 09:19:31;;;;;;;131.97;52.95;;;;;;;6.14;87.13;100988.12;1570146;89;20954;-76
2021/11/13 09:21:57;;;;;;;139.40;54.05;;;;;;;6.16;87.16;100986.44;1604553;86;20920;-76
2021/11/13 09:24:24;;;;;;;137.50;54.15;;;;;;;6.18;87.15;101000.14;1602697;87;22396;-76
2021/11/13 09:26:51;;;;;;;130.70;54.03;;;;;;;6.20;87.16;100994.59;1600155;86;21011;-76
2021/11/13 09:29:17;;;;;;;135.70;55.80;;;;;;;6.21;87.11;100991.18;1572751;87;21167;-76
2021/11/13 09:31:44;;;;;;;134.60;57.08;;;;;;;6.22;87.12;100989.05;1601616;87;21134;-80
2021/11/13 09:34:17;;;;;;;130.97;55.00;;;;;;;6.25;87.15;100992.03;1604832;86;20927;-77
2021/11/13 09:36:44;;;;;;;134.67;57.30;;;;;;;6.27;87.12;100992.48;1614047;86;20936;-77
2021/11/13 09:39:10;;;;;;;136.20;58.17;;;;;;;6.29;87.10;101001.48;1601269;85;24110;-80
2021/11/13 09:41:37;;;;;;;135.97;58.20;;;;;;;6.29;87.06;100995.06;1599900;87;27994;-80
2021/11/13 09:44:04;;;;;;;135.72;57.55;;;;;;;6.29;87.05;100986.93;1595017;87;20964;-80
2021/11/13 09:46:31;;;;;;;131.60;56.08;;;;;;;6.29;87.05;100989.50;1593497;87;20952;-80
2021/11/13 09:49:00;;;;;;;135.12;60.78;;;;;;;6.32;87.06;100983.52;1614885;86;20943;-80
2021/11/13 09:51:28;;;;;;;131.37;56.92;;;;;;;6.35;87.07;100979.70;1598784;86;20955;-79
2021/11/13 09:53:56;;;;;;;134.78;58.38;;;;;;;6.38;87.11;100983.57;1589082;88;20963;-80
2021/11/13 09:56:23;;;;;;;135.05;57.38;;;;;;;6.41;87.10;100986.16;1596420;87;21830;-77
2021/11/13 09:58:50;;;;;;;137.68;56.42;;;;;;;6.45;87.12;100985.34;1597876;88;20908;-75
2021/11/13 10:01:17;;;;;;;133.65;57.78;;;;;;;6.46;87.02;100989.63;1588936;87;20995;-74
2021/11/13 10:03:43;;;;;;;127.92;58.15;;;;;;;6.48;86.99;100989.63;1607562;87;20960;-74
2021/11/13 10:06:15;;;;;;;134.05;58.05;;;;;;;6.47;86.99;100992.63;1601404;88;20988;-74
2021/11/13 10:08:47;;;;;;;130.07;56.50;;;;;;;6.48;86.98;100999.91;1583751;88;21014;-74
2021/11/13 10:11:22;;;;;;;129.55;56.45;;;;;;;6.48;87.02;100996.91;1616194;87;20936;-74
2021/11/13 10:13:55;;;;;;;125.62;56.50;;;;;;;6.49;86.95;101001.20;1609615;88;20948;-75
2021/11/13 10:16:46;;;;;;;138.22;59.33;;;;;;;6.47;86.94;100996.48;1579078;88;21010;-76
2021/11/13 10:19:18;;;;;;;127.27;55.70;;;;;;;6.47;86.95;100993.05;1573282;89;20961;-76
2021/11/13 10:21:50;;;;;;;131.57;56.37;;;;;;;6.46;86.93;100992.62;1573261;89;21105;-76
2021/11/13 10:24:21;;;;;;;128.85;55.88;;;;;;;6.47;86.95;100996.48;1570520;89;21509;-76
2021/11/13 10:26:55;;;;;;;127.20;57.27;;;;;;;6.48;86.94;100998.63;1624113;86;21091;-76
2021/11/13 10:29:26;;;;;;;139.37;59.00;;;;;;;6.47;86.95;100996.48;1582830;89;21197;-76
2021/11/13 10:32:02;;;;;;;128.32;58.90;;;;;;;6.46;86.92;100998.61;1572486;89;21454;-76
2021/11/13 10:34:36;;;;;;;126.65;56.73;;;;;;;6.48;86.92;101001.19;1614176;87;21380;-77
2021/11/13 10:37:08;;;;;;;128.40;58.10;;;;;;;6.47;86.89;100981.06;1580036;88;21372;-76
2021/11/13 10:39:38;;;;;;;123.75;55.83;;;;;;;6.47;86.89;100987.91;1611521;87;21056;-76
2021/11/13 10:42:15;;;;;;;130.10;56.15;;;;;;;6.46;86.88;100980.63;1610324;86;21055;-77
2021/11/13 10:44:51;;;;;;;;;;;;;;;6.44;86.82;100981.47;1616608;87;21555;-77
2021/11/13 10:47:23;;;;;;;124.12;54.88;;;;;;;6.43;86.80;100988.74;1614464;86;20166;-77
2021/11/13 10:49:52;;;;;;;124.10;56.23;;;;;;;6.41;86.81;100990.02;1588734;89;20923;-77
2021/11/13 10:52:21;;;;;;;120.62;54.53;;;;;;;6.42;86.89;100991.73;1576466;89;21081;-77
2021/11/13 10:54:51;;;;;;;119.82;56.20;;;;;;;6.42;86.86;100987.88;1615054;88;20965;-77
2021/11/13 10:57:30;;;;;;;122.33;55.50;;;;;;;6.42;86.84;100991.73;1613123;88;21394;-77
2021/11/13 11:00:14;;;;;;;122.62;56.80;;;;;;;6.40;86.82;100986.15;1610056;87;21004;-77
2021/11/13 11:02:43;;;;;;;129.30;56.77;;;;;;;6.41;86.87;100983.59;1615690;88;21460;-74
2021/11/13 11:05:18;;;;;;;133.63;57.90;;;;;;;6.44;86.86;100978.91;1593513;87;20971;-74
2021/11/13 11:07:45;;;;;;;120.00;57.00;;;;;;;6.45;86.87;100977.62;1606373;87;20946;-74
2021/11/13 11:10:15;;;;;;;130.70;59.27;;;;;;;6.48;86.86;100980.22;1628966;86;20916;-75
2021/11/13 11:12:40;;;;;;;121.25;56.92;;;;;;;6.50;86.83;100981.09;1625353;86;20934;-75
2021/11/13 11:15:13;;;;;;;131.63;59.18;;;;;;;6.53;86.86;100978.54;1591771;88;20959;-75